»·PEaware :: N982YR KHAF-KMHR

N982YR :: KHAF-KMHR

FLIGHT INFORMATION

Flight Status: Arrived
Operator: Privately registered:
United States
More flights under this callsign
Pilot: Anonymous 15639 (15639)
Aircraft: CESSNA 172 SKYHAWK
(C172)
More flights by this aircraft type
Origin: KHAF Half Moon Bay
United States
Destination: KMHR Mather
United States
More flights between these airports :: More routes between these airports
Route: +OAK V6 SAC
File this flight plan on PilotEdge
Remarks:
Altitude:
(Current/Filed)
7,000ft
Speed:
(Current/Filed)
115kts
Departed: 18-Aug-18 02:59 PM
Arrived: 18-Aug-18 03:56 PM
Distance/Time
Traveled:
85nm/0:57
Distance/Time
To Go:
Arrived

Flight Plot

Page will automatically refresh every two minutes.

Flight plan parsing failed; only flown route is shown


Map Options




Map Legend


Flown Route
Filed Route
Departure Airport
Arrival Airport
Navaid (VOR, NDB)
Fix

Horizontal Profiles

Position Reports

Time Latitude Longitude Heading Altitude Ground
Speed
18-Aug-18 14:48 37.513871 -122.496039 308 67ft 0kts
18-Aug-18 14:49 37.513871 -122.496039 308 67ft 0kts
18-Aug-18 14:50 37.513871 -122.496039 308 67ft 0kts
18-Aug-18 14:51 37.513871 -122.496039 308 67ft 0kts
18-Aug-18 14:52 37.513769 -122.496335 228 67ft 4kts
18-Aug-18 14:53 37.514948 -122.498705 304 67ft 11kts
18-Aug-18 14:54 37.517019 -122.502619 302 67ft 15kts
18-Aug-18 14:55 37.519066 -122.506110 224 67ft 9kts
18-Aug-18 14:56 37.518925 -122.506294 226 67ft 0kts
18-Aug-18 14:57 37.518926 -122.506294 226 67ft 0kts
18-Aug-18 14:58 37.518926 -122.506294 226 67ft 0kts
18-Aug-18 14:59 37.518278 -122.506794 160 67ft 10kts
18-Aug-18 15:00 37.506942 -122.496091 191 482ft 62kts
18-Aug-18 15:01 37.506285 -122.515228 283 1197ft 65kts
18-Aug-18 15:02 37.513465 -122.536696 280 1876ft 66kts
18-Aug-18 15:03 37.519383 -122.560522 268 2467ft 71kts
18-Aug-18 15:04 37.525380 -122.585960 280 3010ft 78kts
18-Aug-18 15:05 37.541945 -122.597290 16 3589ft 85kts
18-Aug-18 15:06 37.564552 -122.589165 13 4149ft 85kts
18-Aug-18 15:07 37.587209 -122.580554 12 4676ft 85kts
18-Aug-18 15:08 37.611958 -122.571044 16 5005ft 105kts
18-Aug-18 15:09 37.642598 -122.559536 12 4980ft 119kts
18-Aug-18 15:10 37.673585 -122.547737 13 4999ft 115kts
18-Aug-18 15:11 37.704715 -122.535494 13 4998ft 119kts
18-Aug-18 15:12 37.736524 -122.522838 13 4995ft 120kts
18-Aug-18 15:13 37.766916 -122.505938 42 4991ft 124kts
18-Aug-18 15:14 37.790756 -122.474233 43 4961ft 123kts
18-Aug-18 15:15 37.812531 -122.443176 43 4950ft 115kts
18-Aug-18 15:16 37.825358 -122.406105 73 4942ft 119kts
18-Aug-18 15:17 37.832209 -122.365109 73 4940ft 118kts
18-Aug-18 15:18 37.839153 -122.324471 73 4939ft 118kts
18-Aug-18 15:19 37.846267 -122.283948 73 4938ft 118kts
18-Aug-18 15:20 37.853596 -122.243326 73 4936ft 118kts
18-Aug-18 15:21 37.861104 -122.202850 73 4934ft 118kts
18-Aug-18 15:22 37.868824 -122.162382 73 4932ft 118kts
18-Aug-18 15:23 37.876693 -122.121892 73 4928ft 119kts
18-Aug-18 15:24 37.884685 -122.081191 72 4924ft 119kts
18-Aug-18 15:25 37.898748 -122.045562 35 4921ft 113kts
18-Aug-18 15:26 37.922773 -122.020025 35 4917ft 112kts
18-Aug-18 15:27 37.946619 -121.994944 34 4917ft 111kts
18-Aug-18 15:28 37.970505 -121.969939 34 4917ft 111kts
18-Aug-18 15:29 37.994281 -121.945098 34 4917ft 111kts
18-Aug-18 15:30 38.018084 -121.920241 34 4917ft 111kts
18-Aug-18 15:31 38.041943 -121.895324 34 4912ft 111kts
18-Aug-18 15:32 38.066094 -121.870091 34 4904ft 113kts
18-Aug-18 15:33 38.090496 -121.844577 35 4893ft 114kts
18-Aug-18 15:34 38.115302 -121.818711 35 4879ft 116kts
18-Aug-18 15:35 38.141220 -121.793852 28 4867ft 117kts
18-Aug-18 15:36 38.169022 -121.772057 29 4858ft 118kts
18-Aug-18 15:37 38.197096 -121.749831 29 4850ft 119kts
18-Aug-18 15:38 38.225159 -121.727493 30 4846ft 119kts
18-Aug-18 15:39 38.253673 -121.704543 31 4673ft 128kts
18-Aug-18 15:40 38.283340 -121.680586 30 4243ft 125kts
18-Aug-18 15:41 38.313069 -121.656867 31 3745ft 127kts
18-Aug-18 15:42 38.342578 -121.633154 31 3479ft 120kts
18-Aug-18 15:43 38.370175 -121.611145 31 3488ft 115kts
18-Aug-18 15:44 38.397488 -121.589297 31 3496ft 117kts
18-Aug-18 15:45 38.425686 -121.566666 31 3499ft 120kts
18-Aug-18 15:46 38.451206 -121.540202 62 3501ft 121kts
18-Aug-18 15:47 38.466729 -121.501635 62 3444ft 124kts
18-Aug-18 15:48 38.483010 -121.462136 61 2949ft 125kts
18-Aug-18 15:49 38.503795 -121.429300 33 2603ft 113kts
18-Aug-18 15:50 38.530208 -121.406763 32 2560ft 112kts
18-Aug-18 15:51 38.550518 -121.379202 55 1881ft 114kts
18-Aug-18 15:52 38.568146 -121.345722 57 1340ft 113kts
18-Aug-18 15:53 38.582402 -121.313597 58 1216ft 98kts
18-Aug-18 15:54 38.592829 -121.284172 100 1024ft 91kts
18-Aug-18 15:55 38.572620 -121.274053 210 408ft 85kts
18-Aug-18 15:56 38.559965 -121.292919 237 102ft 41kts
18-Aug-18 15:57 38.557848 -121.299547 317 102ft 14kts
18-Aug-18 15:58 38.560499 -121.301568 22 102ft 9kts
18-Aug-18 15:59 38.560726 -121.301779 263 102ft 0kts
18-Aug-18 16:00 38.560726 -121.301779 263 102ft 0kts

Navigation Log

Ident Type
Flight plan parsing failed, navigation log unavailable